createdAt,value
2016-07-13T00:00:28.525Z,93.31
2016-07-13T00:01:28.503Z,93.5
2016-07-13T00:02:28.494Z,93.07
2016-07-13T00:03:28.520Z,93.12
2016-07-13T00:04:28.531Z,93.55
2016-07-13T00:05:28.503Z,92.69
2016-07-13T00:06:28.395Z,93.26
2016-07-13T00:07:28.592Z,93.07
2016-07-13T00:08:28.487Z,93.07
2016-07-13T00:09:28.491Z,93.26
2016-07-13T00:10:28.481Z,93.36
2016-07-13T00:11:28.585Z,93.16
2016-07-13T00:12:28.495Z,92.69
2016-07-13T00:13:28.439Z,92.88
2016-07-13T00:14:28.459Z,92.59
2016-07-13T00:15:28.464Z,92.5
2016-07-13T00:16:28.351Z,92.59
2016-07-13T00:17:28.452Z,92.4
2016-07-13T00:18:28.452Z,92.21
2016-07-13T00:19:28.448Z,92.11
2016-07-13T00:20:28.438Z,92.5
2016-07-13T00:21:28.410Z,92.21
2016-07-13T00:22:28.418Z,92.11
2016-07-13T00:23:28.417Z,92.21
2016-07-13T00:24:28.427Z,92.11
2016-07-13T00:25:28.490Z,91.83
2016-07-13T00:26:28.301Z,92.3
2016-07-13T00:27:28.411Z,92.21
2016-07-13T00:28:28.410Z,91.83
2016-07-13T00:29:28.399Z,92.21
2016-07-13T00:30:28.522Z,91.74
2016-07-13T00:31:29.109Z,91.83
2016-07-13T00:32:28.389Z,92.3
2016-07-13T00:33:28.383Z,91.64
2016-07-13T00:34:28.387Z,91.74
2016-07-13T00:35:28.481Z,91.54
2016-07-13T00:36:28.464Z,91.06
2016-07-13T00:37:28.353Z,91.06
2016-07-13T00:38:28.475Z,91.25
2016-07-13T00:39:28.250Z,91.45
2016-07-13T00:40:28.342Z,91.06
2016-07-13T00:41:28.350Z,91.16
2016-07-13T00:42:28.377Z,91.54
2016-07-13T00:43:28.446Z,91.35
2016-07-13T00:44:28.345Z,91.16
2016-07-13T00:45:28.437Z,90.97
2016-07-13T00:46:28.217Z,91.45
2016-07-13T00:47:28.339Z,91.35
2016-07-13T00:48:28.333Z,90.49
2016-07-13T00:49:28.300Z,90.78
2016-07-13T00:50:28.336Z,90.78
2016-07-13T00:51:28.310Z,90.39
2016-07-13T00:52:28.412Z,90.78
2016-07-13T00:53:28.307Z,90.39
2016-07-13T00:54:28.307Z,90.68
2016-07-13T00:55:28.294Z,90.39
2016-07-13T00:56:28.181Z,90.34
2016-07-13T00:57:28.405Z,90.63
2016-07-13T00:58:28.296Z,90.63
2016-07-13T00:59:28.281Z,89.82
2016-07-13T01:00:28.288Z,89.92
2016-07-13T01:01:28.277Z,90.25
2016-07-13T01:02:28.277Z,89.92
2016-07-13T01:03:28.369Z,89.58
2016-07-13T01:04:28.268Z,89.63
2016-07-13T01:05:28.256Z,89.25
2016-07-13T01:06:28.146Z,89.77
2016-07-13T01:07:28.233Z,89.63
2016-07-13T01:08:28.251Z,89.53
2016-07-13T01:09:28.239Z,89.25
2016-07-13T01:10:28.238Z,89.34
2016-07-13T01:11:28.245Z,89.44
2016-07-13T01:12:28.243Z,89.53
2016-07-13T01:13:28.226Z,89.29
2016-07-13T01:14:28.226Z,89.29
2016-07-13T01:15:28.341Z,89.29
2016-07-13T01:16:28.127Z,88.81
2016-07-13T01:17:28.225Z,89.29
2016-07-13T01:18:28.215Z,89.1
2016-07-13T01:19:28.218Z,88.91
2016-07-13T01:20:28.205Z,89.25
2016-07-13T01:21:28.203Z,89.39
2016-07-13T01:22:28.199Z,89.39
2016-07-13T01:23:28.198Z,89.25
2016-07-13T01:24:28.185Z,88.81
2016-07-13T01:25:28.150Z,89.06
2016-07-13T01:26:28.086Z,88.58
2016-07-13T01:27:28.166Z,88.87
2016-07-13T01:28:28.172Z,88.68
2016-07-13T01:29:28.167Z,88.58
2016-07-13T01:30:28.161Z,89.15
2016-07-13T01:31:28.166Z,89.34
2016-07-13T01:32:28.161Z,89.25
2016-07-13T01:33:28.260Z,89.53
2016-07-13T01:34:28.271Z,89.63
2016-07-13T01:35:28.155Z,89.06
2016-07-13T01:36:28.040Z,89.34
2016-07-13T01:37:28.144Z,89.53
2016-07-13T01:38:28.134Z,89.73
2016-07-13T01:39:28.131Z,89.63
2016-07-13T01:40:28.132Z,89.25
2016-07-13T01:41:28.126Z,89.73
2016-07-13T01:42:28.125Z,89.63
2016-07-13T01:43:28.236Z,89.82
2016-07-13T01:44:28.118Z,89.92
2016-07-13T01:45:28.109Z,90.49
2016-07-13T01:46:27.991Z,90.49
2016-07-13T01:47:28.114Z,90.2
2016-07-13T01:48:28.096Z,90.2
2016-07-13T01:49:28.186Z,90.59
2016-07-13T01:50:28.796Z,90.49
2016-07-13T01:51:28.067Z,90.49
2016-07-13T01:52:28.063Z,90.78
2016-07-13T01:53:28.207Z,90.68
2016-07-13T01:54:28.076Z,90.59
2016-07-13T01:55:28.083Z,90.78
2016-07-13T01:56:27.957Z,90.59
2016-07-13T01:57:28.065Z,90.68
2016-07-13T01:58:28.153Z,90.39
2016-07-13T01:59:28.055Z,90.39
2016-07-13T02:00:28.048Z,90.68
2016-07-13T02:01:28.025Z,90.88
2016-07-13T02:02:28.029Z,90.49
2016-07-13T02:03:28.018Z,90.3
2016-07-13T02:04:28.068Z,90.78
2016-07-13T02:05:28.117Z,90.59
2016-07-13T02:06:27.911Z,90.49
2016-07-13T02:07:28.820Z,90.39
2016-07-13T02:08:28.118Z,90.88
2016-07-13T02:09:28.009Z,90.68
2016-07-13T02:10:28.125Z,90.68
2016-07-13T02:11:27.991Z,90.97
2016-07-13T02:12:27.992Z,90.59
2016-07-13T02:13:28.006Z,91.35
2016-07-13T02:14:27.977Z,90.88
2016-07-13T02:15:27.983Z,91.35
2016-07-13T02:16:27.873Z,91.35
2016-07-13T02:17:27.990Z,91.45
2016-07-13T02:18:27.976Z,91.06
2016-07-13T02:19:28.087Z,91.45
2016-07-13T02:20:27.940Z,91.35
2016-07-13T02:21:27.965Z,91.16
2016-07-13T02:22:27.970Z,91.45
2016-07-13T02:23:27.969Z,91.16
2016-07-13T02:24:27.836Z,91.16
2016-07-13T02:25:27.922Z,91.25
2016-07-13T02:26:27.923Z,91.45
2016-07-13T02:27:27.947Z,91.45
2016-07-13T02:28:27.910Z,91.54
2016-07-13T02:29:27.910Z,91.45
2016-07-13T02:30:27.924Z,91.16
2016-07-13T02:31:27.935Z,91.16
2016-07-13T02:32:27.933Z,91.35
2016-07-13T02:33:27.915Z,91.35
2016-07-13T02:34:27.799Z,91.16
2016-07-13T02:35:28.019Z,91.35
2016-07-13T02:36:27.796Z,91.78
2016-07-13T02:37:28.023Z,91.64
2016-07-13T02:38:28.018Z,91.64
2016-07-13T02:39:27.949Z,91.97
2016-07-13T02:40:27.901Z,91.59
2016-07-13T02:41:27.939Z,92.07
2016-07-13T02:42:27.947Z,91.4
2016-07-13T02:43:27.848Z,92.07
2016-07-13T02:44:27.976Z,92.36
2016-07-13T02:45:27.873Z,91.69
2016-07-13T02:46:27.752Z,91.59
2016-07-13T02:47:27.915Z,91.59
2016-07-13T02:48:27.749Z,91.97
2016-07-13T02:49:27.855Z,92.16
2016-07-13T02:50:27.850Z,91.78
2016-07-13T02:51:27.951Z,92.26
2016-07-13T02:52:27.808Z,91.97
2016-07-13T02:53:27.844Z,92.16
2016-07-13T02:54:27.834Z,91.69
2016-07-13T02:55:27.832Z,91.97
2016-07-13T02:56:27.823Z,92.36
2016-07-13T02:57:27.817Z,92.64
2016-07-13T02:58:27.706Z,92.74
2016-07-13T02:59:27.811Z,92.64
2016-07-13T03:00:27.812Z,91.97
2016-07-13T03:01:27.808Z,91.97
2016-07-13T03:02:27.683Z,92.36
2016-07-13T03:03:27.796Z,91.88
2016-07-13T03:04:27.680Z,92.83
2016-07-13T03:05:27.798Z,91.88
2016-07-13T03:06:27.673Z,91.69
2016-07-13T03:07:27.784Z,92.07
2016-07-13T03:08:27.663Z,92.07
2016-07-13T03:09:27.780Z,92.16
2016-07-13T03:10:27.653Z,91.69
2016-07-13T03:11:27.857Z,92.26
2016-07-13T03:12:27.645Z,92.26
2016-07-13T03:13:27.730Z,92.74
2016-07-13T03:14:27.640Z,92.55
2016-07-13T03:15:27.636Z,92.64
2016-07-13T03:16:27.682Z,92.74
2016-07-13T03:17:27.850Z,92.74
2016-07-13T03:18:27.620Z,93.21
2016-07-13T03:19:27.730Z,93.02
2016-07-13T03:20:27.610Z,93.02
2016-07-13T03:21:27.893Z,93.6
2016-07-13T03:22:27.731Z,93.21
2016-07-13T03:23:27.810Z,93.6
2016-07-13T03:24:27.682Z,92.93
2016-07-13T03:25:27.593Z,93.21
2016-07-13T03:26:27.584Z,93.21
2016-07-13T03:27:27.795Z,93.21
2016-07-13T03:28:27.668Z,93.6
2016-07-13T03:29:27.656Z,93.21
2016-07-13T03:30:27.575Z,93.02
2016-07-13T03:31:27.778Z,93.21
2016-07-13T03:32:27.722Z,93.41
2016-07-13T03:33:27.719Z,93.41
2016-07-13T03:34:27.641Z,92.93
2016-07-13T03:35:27.555Z,93.12
2016-07-13T03:36:27.543Z,93.6
2016-07-13T03:37:27.654Z,93.6
2016-07-13T03:38:27.654Z,93.88
2016-07-13T03:39:27.639Z,93.41
2016-07-13T03:40:27.522Z,93.5
2016-07-13T03:41:27.642Z,93.7
2016-07-13T03:42:27.631Z,94.07
2016-07-13T03:43:27.628Z,93.98
2016-07-13T03:44:27.596Z,93.79
2016-07-13T03:45:27.502Z,93.98
2016-07-13T03:46:27.497Z,93.79
2016-07-13T03:47:27.613Z,93.79
2016-07-13T03:48:27.610Z,93.5
2016-07-13T03:49:27.574Z,94.07
2016-07-13T03:50:27.485Z,93.79
2016-07-13T03:51:27.593Z,93.7
2016-07-13T03:52:27.594Z,93.6
2016-07-13T03:53:27.588Z,94.36
2016-07-13T03:54:27.592Z,93.84
2016-07-13T03:55:27.585Z,93.84
2016-07-13T03:56:28.178Z,93.45
2016-07-13T03:57:27.568Z,93.45
2016-07-13T03:58:27.618Z,93.45
2016-07-13T03:59:27.543Z,93.65
2016-07-13T04:00:27.467Z,93.36
2016-07-13T04:01:27.561Z,93.45
2016-07-13T04:02:27.555Z,93.55
2016-07-13T04:03:27.540Z,93.45
2016-07-13T04:04:27.541Z,93.07
2016-07-13T04:05:27.528Z,92.69
2016-07-13T04:06:27.420Z,93.07
2016-07-13T04:07:27.581Z,92.88
2016-07-13T04:08:27.523Z,92.69
2016-07-13T04:09:27.512Z,92.79
2016-07-13T04:10:27.516Z,92.59
2016-07-13T04:11:27.513Z,92.5
2016-07-13T04:12:27.511Z,92.11
2016-07-13T04:13:27.501Z,92.11
2016-07-13T04:14:27.506Z,92.21
2016-07-13T04:15:27.500Z,91.74
2016-07-13T04:16:27.381Z,92.69
2016-07-13T04:17:27.497Z,92.59
2016-07-13T04:18:27.484Z,92.79
2016-07-13T04:19:27.574Z,92.11
2016-07-13T04:20:27.654Z,91.88
2016-07-13T04:21:27.475Z,92.64
2016-07-13T04:22:27.478Z,91.88
2016-07-13T04:23:27.562Z,92.74
2016-07-13T04:24:27.464Z,92.64
2016-07-13T04:25:27.427Z,92.83
2016-07-13T04:26:28.056Z,92.4
2016-07-13T04:27:27.551Z,93.12
2016-07-13T04:28:27.570Z,92.64
2016-07-13T04:29:27.533Z,92.74
2016-07-13T04:30:27.435Z,92.64
2016-07-13T04:31:27.438Z,92.83
2016-07-13T04:32:27.435Z,92.74
2016-07-13T04:33:27.308Z,92.16
2016-07-13T04:34:27.421Z,92.25
2016-07-13T04:35:27.432Z,92.25
2016-07-13T04:36:28.007Z,92.25
2016-07-13T04:37:27.514Z,92.16
2016-07-13T04:38:27.403Z,91.97
2016-07-13T04:39:27.378Z,92.16
2016-07-13T04:40:27.398Z,92.74
2016-07-13T04:41:27.444Z,92.35
2016-07-13T04:42:27.386Z,91.78
2016-07-13T04:43:27.483Z,92.25
2016-07-13T04:44:27.364Z,92.45
2016-07-13T04:45:27.380Z,92.07
2016-07-13T04:46:27.267Z,91.68
2016-07-13T04:47:27.373Z,91.68
2016-07-13T04:48:27.369Z,92.16
2016-07-13T04:49:27.465Z,92.54
2016-07-13T04:50:27.457Z,93.02
2016-07-13T04:51:27.614Z,92.45
2016-07-13T04:52:27.622Z,92.07
2016-07-13T04:53:27.355Z,92.21
2016-07-13T04:54:27.343Z,92.02
2016-07-13T04:55:27.230Z,91.73
2016-07-13T04:56:27.226Z,91.53
2016-07-13T04:57:27.589Z,90.96
2016-07-13T04:58:27.328Z,91.44
2016-07-13T04:59:27.298Z,91.53
2016-07-13T05:00:27.329Z,91.25
2016-07-13T05:01:27.217Z,91.01
2016-07-13T05:02:27.325Z,91.39
2016-07-13T05:03:27.618Z,91.49
2016-07-13T05:04:27.618Z,90.63
2016-07-13T05:05:27.496Z,90.39
2016-07-13T05:06:27.190Z,90.48
2016-07-13T05:07:27.457Z,90.39
2016-07-13T05:08:27.486Z,90.67
2016-07-13T05:09:27.179Z,90.19
2016-07-13T05:10:27.487Z,89.33
2016-07-13T05:11:27.182Z,89.23
2016-07-13T05:12:27.445Z,88.85
2016-07-13T05:13:27.173Z,88.85
2016-07-13T05:14:27.473Z,87.9
2016-07-13T05:15:27.467Z,87.9
2016-07-13T05:16:27.164Z,87.9
2016-07-13T05:17:27.166Z,88.37
2016-07-13T05:18:28.145Z,88.18
2016-07-13T05:19:27.163Z,88.18
2016-07-13T05:20:27.426Z,88.37
2016-07-13T05:21:27.453Z,88.18
2016-07-13T05:22:27.562Z,88.18
2016-07-13T05:23:28.097Z,88.18
2016-07-13T05:24:27.360Z,88.47
2016-07-13T05:25:27.346Z,88.47
2016-07-13T05:26:27.134Z,88.76
2016-07-13T05:27:27.434Z,88.42
2016-07-13T05:28:27.431Z,87.94
2016-07-13T05:29:27.427Z,87.17
2016-07-13T05:30:27.428Z,87.46
2016-07-13T05:31:27.121Z,87.37
2016-07-13T05:32:27.531Z,87.37
2016-07-13T05:33:27.213Z,87.37
2016-07-13T05:34:27.210Z,87.37
2016-07-13T05:35:27.207Z,87.46
2016-07-13T05:36:27.113Z,87.46
2016-07-13T05:37:27.411Z,87.46
2016-07-13T05:38:27.195Z,86.5
2016-07-13T05:39:27.405Z,85.74
2016-07-13T05:40:27.320Z,86.31
2016-07-13T05:41:27.566Z,85.74
2016-07-13T05:42:27.214Z,85.64
2016-07-13T05:43:27.436Z,85.3
2016-07-13T05:44:27.504Z,85.01
2016-07-13T05:45:27.178Z,84.63
2016-07-13T05:46:27.794Z,84.82
2016-07-13T05:47:27.186Z,84.91
2016-07-13T05:48:27.198Z,84.25
2016-07-13T05:49:27.177Z,84.72
2016-07-13T05:50:27.459Z,84.72
2016-07-13T05:51:27.394Z,84.77
2016-07-13T05:52:27.190Z,84.09
2016-07-13T05:53:28.040Z,83.71
2016-07-13T05:54:27.391Z,84
2016-07-13T05:55:27.450Z,84.19
2016-07-13T05:56:27.074Z,84.09
2016-07-13T05:57:27.175Z,83.33
2016-07-13T05:58:27.173Z,83.71
2016-07-13T05:59:27.144Z,83.14
2016-07-13T06:00:27.169Z,82.85
2016-07-13T06:01:27.155Z,83.04
2016-07-13T06:02:27.143Z,83.33
2016-07-13T06:03:27.167Z,83.52
2016-07-13T06:04:27.173Z,83.52
2016-07-13T06:05:27.431Z,83.04
2016-07-13T06:06:27.048Z,83.52
2016-07-13T06:07:27.153Z,83.52
2016-07-13T06:08:27.130Z,82.94
2016-07-13T06:09:27.416Z,83.04
2016-07-13T06:10:27.865Z,82.37
2016-07-13T06:11:27.153Z,82.56
2016-07-13T06:12:27.150Z,82.75
2016-07-13T06:13:27.151Z,82.56
2016-07-13T06:14:27.119Z,82.51
2016-07-13T06:15:27.128Z,82.51
2016-07-13T06:16:27.028Z,82.51
2016-07-13T06:17:27.149Z,82.41
2016-07-13T06:18:27.135Z,81.35
2016-07-13T06:19:27.115Z,81.26
2016-07-13T06:20:27.154Z,81.16
2016-07-13T06:21:27.469Z,81.16
2016-07-13T06:22:27.137Z,81.54
2016-07-13T06:23:27.137Z,82.41
2016-07-13T06:24:27.129Z,83.27
2016-07-13T06:25:27.407Z,82.03
2016-07-13T06:26:27.022Z,81.74
2016-07-13T06:27:27.133Z,81.45
2016-07-13T06:28:27.817Z,81.26
2016-07-13T06:29:27.134Z,81.68
2016-07-13T06:30:27.845Z,81.01
2016-07-13T06:31:27.129Z,77.56
2016-07-13T06:32:27.096Z,77.65
2016-07-13T06:33:27.127Z,77.69
2016-07-13T06:34:27.008Z,77.69
2016-07-13T06:35:27.094Z,77.21
2016-07-13T06:36:27.006Z,77.78
2016-07-13T06:37:27.122Z,78.36
2016-07-13T06:38:27.119Z,77.63
2016-07-13T06:39:27.126Z,77.73
2016-07-13T06:40:27.160Z,75.9
2016-07-13T06:41:27.173Z,76.67
2016-07-13T06:42:27.003Z,76.19
2016-07-13T06:43:27.086Z,74.79
2016-07-13T06:44:27.092Z,73.92
2016-07-13T06:45:27.124Z,74.88
2016-07-13T06:46:26.998Z,73.06
2016-07-13T06:47:27.114Z,73.73
2016-07-13T06:48:27.085Z,72.48
2016-07-13T06:49:27.117Z,73.15
2016-07-13T06:50:27.110Z,73.92
2016-07-13T06:51:27.113Z,72.67
2016-07-13T06:52:27.111Z,72.67
2016-07-13T06:53:27.121Z,72.29
2016-07-13T06:54:27.111Z,71.42
2016-07-13T06:55:27.119Z,72.38
2016-07-13T06:56:26.995Z,72.77
2016-07-13T06:57:27.117Z,71.04
2016-07-13T06:58:27.093Z,72.29
2016-07-13T06:59:27.118Z,72.86
2016-07-13T07:00:27.078Z,72.38
2016-07-13T07:01:27.088Z,72.29
2016-07-13T07:02:27.115Z,71.23
2016-07-13T07:03:27.202Z,70.56
2016-07-13T07:04:26.995Z,71.84
2016-07-13T07:05:27.108Z,72.23
2016-07-13T07:06:26.993Z,71.97
2016-07-13T07:07:27.093Z,71.4
2016-07-13T07:08:27.377Z,72.17
2016-07-13T07:09:27.098Z,71.49
2016-07-13T07:10:26.993Z,67.55
2016-07-13T07:11:27.204Z,67.45
2016-07-13T07:12:26.993Z,66.39
2016-07-13T07:13:27.090Z,67.1
2016-07-13T07:14:26.995Z,67.23
2016-07-13T07:15:27.110Z,67.13
2016-07-13T07:16:26.996Z,63.28
2016-07-13T07:17:27.088Z,61.77
2016-07-13T07:18:27.095Z,62.79
2016-07-13T07:19:27.086Z,63.15
2016-07-13T07:20:26.998Z,61.89
2016-07-13T07:21:27.118Z,62.18
2016-07-13T07:22:26.998Z,61.47
2016-07-13T07:23:27.102Z,60.35
2016-07-13T07:24:27.096Z,58.57
2016-07-13T07:25:27.125Z,58.86
2016-07-13T07:26:27.004Z,58.47
2016-07-13T07:27:27.141Z,58.25
2016-07-13T07:28:27.118Z,58.64
2016-07-13T07:29:27.133Z,60.38
2016-07-13T07:30:27.127Z,60.38
2016-07-13T07:31:27.135Z,60.24
2016-07-13T07:32:27.136Z,57.08
2016-07-13T07:33:27.106Z,54.49
2016-07-13T07:34:27.145Z,55.73
2016-07-13T07:35:27.142Z,55.63
2016-07-13T07:36:27.029Z,56.76
2016-07-13T07:37:27.154Z,57.41
2016-07-13T07:38:27.419Z,58.47
2016-07-13T07:39:27.127Z,58.06
2016-07-13T07:40:27.861Z,57.29
2016-07-13T07:41:27.168Z,56.48
2016-07-13T07:42:27.144Z,56.58
2016-07-13T07:43:27.162Z,57.23
2016-07-13T07:44:27.152Z,59.74
2016-07-13T07:45:27.166Z,58.94
2016-07-13T07:46:27.064Z,56.88
2016-07-13T07:47:27.171Z,57.43
2016-07-13T07:48:27.497Z,57.43
2016-07-13T07:49:27.178Z,59.52
2016-07-13T07:50:27.176Z,60.1
2016-07-13T07:51:27.155Z,60
2016-07-13T07:52:27.443Z,60.27
2016-07-13T07:53:27.183Z,59.88
2016-07-13T07:54:27.183Z,59.01
2016-07-13T07:55:27.182Z,59.59
2016-07-13T07:56:27.457Z,61.32
2016-07-13T07:57:27.189Z,62.06
2016-07-13T07:58:27.171Z,61
2016-07-13T07:59:27.474Z,60.33
2016-07-13T08:00:27.200Z,61
2016-07-13T08:01:27.472Z,62.16
2016-07-13T08:02:27.394Z,62.99
2016-07-13T08:03:27.207Z,62.8
2016-07-13T08:04:27.206Z,64.05
2016-07-13T08:05:27.207Z,65.46
2016-07-13T08:06:27.085Z,64.79
2016-07-13T08:07:27.531Z,65.75
2016-07-13T08:08:27.197Z,65.75
2016-07-13T08:09:27.544Z,66.87
2016-07-13T08:10:27.413Z,66.87
2016-07-13T08:11:27.810Z,67.45
2016-07-13T08:12:27.503Z,69.75
2016-07-13T08:13:27.393Z,70.78
2016-07-13T08:14:27.335Z,71.83
2016-07-13T08:15:27.177Z,70.68
2016-07-13T08:16:27.099Z,70.84
2016-07-13T08:17:27.468Z,71.7
2016-07-13T08:18:27.418Z,72.95
2016-07-13T08:19:27.474Z,74.01
2016-07-13T08:20:27.186Z,74.73
2016-07-13T08:21:27.090Z,74.26
2016-07-13T08:22:27.510Z,75.31
2016-07-13T08:23:27.505Z,76.37
2016-07-13T08:24:27.202Z,77.13
2016-07-13T08:25:27.207Z,77.04
2016-07-13T08:26:27.086Z,78.15
2016-07-13T08:27:27.201Z,78.92
2016-07-13T08:28:27.395Z,79.3
2016-07-13T08:29:27.204Z,79.59
2016-07-13T08:30:27.189Z,80.64
2016-07-13T08:31:27.090Z,80.93
2016-07-13T08:32:27.201Z,81.31
2016-07-13T08:33:27.404Z,82.18
2016-07-13T08:34:27.183Z,82.08
2016-07-13T08:35:27.167Z,82.75
2016-07-13T08:36:27.080Z,82.23
2016-07-13T08:37:27.192Z,82.27
2016-07-13T08:38:27.195Z,82.56
2016-07-13T08:39:27.886Z,81.98
2016-07-13T08:40:27.198Z,83.04
2016-07-13T08:41:27.080Z,82.46
2016-07-13T08:42:27.193Z,82.46
2016-07-13T08:43:27.194Z,82.21
2016-07-13T08:44:27.184Z,82.31
2016-07-13T08:45:27.193Z,82.03
2016-07-13T08:46:27.077Z,82.12
2016-07-13T08:47:27.199Z,82.16
2016-07-13T08:48:27.181Z,80.91
2016-07-13T08:49:27.181Z,80.24
2016-07-13T08:50:27.391Z,79.09
2016-07-13T08:51:27.387Z,79.32
2016-07-13T08:52:27.448Z,79.42
2016-07-13T08:53:27.185Z,79.03
2016-07-13T08:54:27.187Z,77.53
2016-07-13T08:55:27.385Z,76.57
2016-07-13T08:56:27.064Z,74.55
2016-07-13T08:57:27.453Z,74.37
2016-07-13T08:58:27.195Z,74.65
2016-07-13T08:59:27.181Z,74.65
2016-07-13T09:00:27.183Z,75.32
2016-07-13T09:01:27.177Z,74.94
2016-07-13T09:02:27.179Z,74.27
2016-07-13T09:03:27.063Z,74.85
2016-07-13T09:04:27.391Z,74.75
2016-07-13T09:05:28.080Z,70.23
2016-07-13T09:06:27.069Z,72.16
2016-07-13T09:07:27.178Z,73.46
2016-07-13T09:08:27.182Z,73.46
2016-07-13T09:09:27.155Z,74.52
2016-07-13T09:10:27.173Z,74.58
2016-07-13T09:11:27.180Z,75.15
2016-07-13T09:12:27.452Z,76.94
2016-07-13T09:13:27.178Z,78
2016-07-13T09:14:27.085Z,77.9
2016-07-13T09:15:27.175Z,78.86
2016-07-13T09:16:27.079Z,78.25
2016-07-13T09:17:27.179Z,78.53
2016-07-13T09:18:27.177Z,79.74
2016-07-13T09:19:27.178Z,81.46
2016-07-13T09:20:27.056Z,81.18
2016-07-13T09:21:27.051Z,81.33
2016-07-13T09:22:27.493Z,82.48
2016-07-13T09:23:27.164Z,82.96
2016-07-13T09:24:27.168Z,83.11
2016-07-13T09:25:27.171Z,83.87
2016-07-13T09:26:27.041Z,84.74
2016-07-13T09:27:27.157Z,84.83
2016-07-13T09:28:27.153Z,85.41
2016-07-13T09:29:28.298Z,85.88
2016-07-13T09:30:27.609Z,86.22
2016-07-13T09:31:28.521Z,86.51
2016-07-13T09:32:27.141Z,86.7
2016-07-13T09:33:27.112Z,87.37
2016-07-13T09:34:27.297Z,87.85
2016-07-13T09:35:27.136Z,88.81
2016-07-13T09:36:27.026Z,89
2016-07-13T09:37:27.135Z,89.38
2016-07-13T09:38:27.124Z,89.09
2016-07-13T09:39:27.351Z,88.81
2016-07-13T09:40:27.473Z,89.38
2016-07-13T09:41:27.119Z,89.67
2016-07-13T09:42:27.148Z,89.58
2016-07-13T09:43:27.368Z,89.76
2016-07-13T09:44:27.435Z,89.67
2016-07-13T09:45:27.093Z,89.29
2016-07-13T09:46:28.009Z,89.58
2016-07-13T09:47:27.107Z,90.05
2016-07-13T09:48:27.420Z,89.67
2016-07-13T09:49:27.199Z,90
2016-07-13T09:50:27.103Z,89.9
2016-07-13T09:51:27.091Z,89.9
2016-07-13T09:52:27.191Z,90.29
2016-07-13T09:53:27.064Z,89.86
2016-07-13T09:54:27.188Z,90.81
2016-07-13T09:55:27.178Z,89.95
2016-07-13T09:56:26.968Z,89.71
2016-07-13T09:57:27.080Z,87.6
2016-07-13T09:58:27.135Z,84.82
2016-07-13T09:59:27.075Z,83.19
2016-07-13T10:00:27.171Z,84.28
2016-07-13T10:01:27.074Z,84.38
2016-07-13T10:02:27.043Z,80.93
2016-07-13T10:03:27.059Z,83.08
2016-07-13T10:04:27.059Z,84.52
2016-07-13T10:05:27.077Z,85.67
2016-07-13T10:06:26.944Z,86.29
2016-07-13T10:07:27.081Z,86.77
2016-07-13T10:08:27.152Z,86.14
2016-07-13T10:09:27.059Z,85.28
2016-07-13T10:10:27.054Z,85.51
2016-07-13T10:11:27.050Z,85.41
2016-07-13T10:12:27.050Z,80.27
2016-07-13T10:13:27.049Z,80.36
2016-07-13T10:14:27.040Z,76.52
2016-07-13T10:15:27.051Z,74.73
2016-07-13T10:16:26.931Z,76.07
2016-07-13T10:17:27.046Z,76.81
2016-07-13T10:18:27.756Z,77.76
2016-07-13T10:19:27.046Z,78.34
2016-07-13T10:20:27.042Z,77.61
2016-07-13T10:21:27.044Z,77.96
2016-07-13T10:22:27.041Z,79.21
2016-07-13T10:23:27.025Z,79.63
2016-07-13T10:24:27.042Z,80.6
2016-07-13T10:25:27.041Z,80.63
2016-07-13T10:26:26.922Z,80.92
2016-07-13T10:27:27.047Z,72.01
2016-07-13T10:28:27.051Z,69.02
2016-07-13T10:29:27.043Z,65.56
2016-07-13T10:30:27.045Z,67.58
2016-07-13T10:31:27.044Z,69.09
2016-07-13T10:32:27.545Z,69.09
2016-07-13T10:33:27.150Z,65.66
2016-07-13T10:34:27.039Z,69.02
2016-07-13T10:35:27.041Z,67.1
2016-07-13T10:36:26.927Z,69.02
2016-07-13T10:37:27.047Z,71.34
2016-07-13T10:38:27.038Z,72.63
2016-07-13T10:39:27.050Z,65.46
2016-07-13T10:40:27.045Z,65.75
2016-07-13T10:41:27.047Z,67.77
2016-07-13T10:42:27.052Z,69.22
2016-07-13T10:43:27.053Z,68.64
2016-07-13T10:44:27.054Z,67.87
2016-07-13T10:45:27.051Z,65.27
2016-07-13T10:46:26.933Z,67.23
2016-07-13T10:47:27.049Z,67.52
2016-07-13T10:48:27.050Z,68
2016-07-13T10:49:27.056Z,68.19
2016-07-13T10:50:27.049Z,66.69
2016-07-13T10:51:27.057Z,67.16
2016-07-13T10:52:27.056Z,62.35
2016-07-13T10:53:27.059Z,61.77
2016-07-13T10:54:27.053Z,65.56
2016-07-13T10:55:27.053Z,65.27
2016-07-13T10:56:26.942Z,61.32
2016-07-13T10:57:27.057Z,61.03
2016-07-13T10:58:27.041Z,67.2
2016-07-13T10:59:27.159Z,69.51
2016-07-13T11:00:26.950Z,65.59
2016-07-13T11:01:27.057Z,58.29
2016-07-13T11:02:27.065Z,59.52
2016-07-13T11:03:27.074Z,60
2016-07-13T11:04:26.954Z,55.94
2016-07-13T11:05:27.073Z,60.35
2016-07-13T11:06:26.964Z,58.78
2016-07-13T11:07:27.106Z,60.52
2016-07-13T11:08:27.069Z,57.43
2016-07-13T11:09:27.793Z,59.81
2016-07-13T11:10:27.146Z,57.12
2016-07-13T11:11:27.790Z,61.65
2016-07-13T11:12:27.065Z,59.14
2016-07-13T11:13:27.794Z,57.02
2016-07-13T11:14:26.969Z,59.14
2016-07-13T11:15:27.081Z,57.5
2016-07-13T11:16:27.071Z,60.77
2016-07-13T11:17:27.088Z,59.11
2016-07-13T11:18:27.087Z,58.24
2016-07-13T11:19:27.190Z,59.59
2016-07-13T11:20:26.970Z,61.32
2016-07-13T11:21:27.088Z,60.94
2016-07-13T11:22:26.976Z,60.3
2016-07-13T11:23:27.203Z,60.58
2016-07-13T11:24:27.065Z,61.8
2016-07-13T11:25:27.099Z,61.52
2016-07-13T11:26:26.988Z,61.52
2016-07-13T11:27:27.106Z,62.09
2016-07-13T11:28:26.983Z,61
2016-07-13T11:29:27.104Z,62.93
2016-07-13T11:30:26.983Z,62.83
2016-07-13T11:31:27.383Z,64.47
2016-07-13T11:32:27.080Z,63.41
2016-07-13T11:33:27.104Z,64.56
2016-07-13T11:34:27.113Z,64.95
2016-07-13T11:35:27.105Z,63.7
2016-07-13T11:36:27.150Z,63.64
2016-07-13T11:37:27.114Z,61.52
2016-07-13T11:38:27.113Z,60.17
2016-07-13T11:39:27.109Z,58.53
2016-07-13T11:40:27.819Z,59.78
2016-07-13T11:41:27.110Z,59.37
2016-07-13T11:42:27.115Z,63.02
2016-07-13T11:43:27.386Z,60.78
2016-07-13T11:44:27.123Z,63.67
2016-07-13T11:45:27.112Z,63.48
2016-07-13T11:46:27.712Z,65.3
2016-07-13T11:47:27.117Z,61.94
2016-07-13T11:48:27.445Z,63.54
2016-07-13T11:49:27.095Z,62.38
2016-07-13T11:50:27.092Z,63.64
2016-07-13T11:51:27.100Z,64.4
2016-07-13T11:52:27.100Z,64.89
2016-07-13T11:53:27.115Z,62.96
2016-07-13T11:54:27.116Z,63.73
2016-07-13T11:55:27.124Z,64.89
2016-07-13T11:56:27.003Z,63.48
2016-07-13T11:57:27.104Z,64.92
2016-07-13T11:58:27.120Z,63.79
2016-07-13T11:59:27.121Z,59.37
2016-07-13T12:00:27.124Z,58.5
2016-07-13T12:01:27.118Z,59.37
2016-07-13T12:02:27.095Z,60.72
2016-07-13T12:03:27.117Z,60.81
2016-07-13T12:04:27.093Z,62.13
2016-07-13T12:05:27.124Z,63.09
2016-07-13T12:06:27.003Z,61.74
2016-07-13T12:07:27.102Z,60.78
2016-07-13T12:08:27.109Z,61.07
2016-07-13T12:09:27.120Z,58.86
2016-07-13T12:10:27.125Z,61.55
2016-07-13T12:11:27.132Z,61.84
2016-07-13T12:12:27.095Z,62.03
2016-07-13T12:13:27.127Z,62.8
2016-07-13T12:14:27.129Z,61.94
2016-07-13T12:15:27.128Z,62.99
2016-07-13T12:16:27.009Z,61.07
2016-07-13T12:17:27.123Z,56.2
2016-07-13T12:18:27.103Z,57.22
2016-07-13T12:19:27.458Z,59.15
2016-07-13T12:20:27.132Z,57.13
2016-07-13T12:21:27.132Z,56.26
2016-07-13T12:22:27.133Z,58.67
2016-07-13T12:23:27.132Z,58.47
2016-07-13T12:24:27.127Z,56.36
2016-07-13T12:25:27.406Z,57.03
2016-07-13T12:26:27.015Z,59.24
2016-07-13T12:27:27.140Z,60.14
2016-07-13T12:28:27.128Z,56.48
2016-07-13T12:29:27.402Z,56.84
2016-07-13T12:30:27.403Z,58.79
2016-07-13T12:31:27.460Z,58.79
2016-07-13T12:32:27.402Z,58.79
2016-07-13T12:33:27.463Z,58.5
2016-07-13T12:34:27.101Z,59.69
2016-07-13T12:35:27.122Z,61.04
2016-07-13T12:36:27.016Z,60.07
2016-07-13T12:37:27.465Z,59.52
2016-07-13T12:38:27.146Z,56.35
2016-07-13T12:39:27.406Z,58.17
2016-07-13T12:40:27.177Z,56.44
2016-07-13T12:41:27.139Z,59.45
2016-07-13T12:42:27.144Z,55.51
2016-07-13T12:43:27.022Z,54.28
2016-07-13T12:44:27.149Z,54.64
2016-07-13T12:45:27.405Z,52.04
2016-07-13T12:46:27.038Z,52.13
2016-07-13T12:47:27.151Z,53.45
2016-07-13T12:48:27.151Z,54.22
2016-07-13T12:49:27.031Z,54.42
2016-07-13T12:50:27.144Z,56.25
2016-07-13T12:51:27.036Z,57.4
2016-07-13T12:52:27.151Z,56.63
2016-07-13T12:53:27.079Z,56.35
2016-07-13T12:54:27.136Z,56.44
2016-07-13T12:55:27.866Z,57.21